ADDS METAR Data INFO
IDs: Format: Raw Decoded Include TAF

Data at: 1906 UTC 23 Apr 2018

KAFK 231855Z AUTO 03003G08KT 10SM CLR 22/M01 A3011 RMK AO2 T02181008
KAFK 231835Z AUTO 05012G15KT 340V100 10SM CLR 22/00 A3012 RMK AO2 T02201001
KAFK 231815Z AUTO 04012G16KT 10SM CLR 21/00 A3013 RMK AO2 T02131005
KAFK 231755Z AUTO 11006G18KT 10SM CLR 21/00 A3014 RMK AO2 T02120001 10213 20066
KAFK 231735Z AUTO 04010G17KT 10SM CLR 21/00 A3014 RMK AO2 T02100004
KAFK 231715Z AUTO 08011G15KT 10SM CLR 20/01 A3015 RMK AO2 T02040005
KAFK 231655Z AUTO 07013KT 040V100 10SM CLR 20/01 A3015 RMK AO2 T02020007
KAFK 231635Z AUTO 03007KT 10SM CLR 20/01 A3016 RMK AO2 T01950010
KAFK 231615Z AUTO 05008KT 10SM CLR 19/01 A3016 RMK AO2 T01860006
KAFK 231555Z AUTO 03008KT 10SM CLR 18/01 A3017 RMK AO2 T01760010
KAFK 231535Z AUTO 03007KT 010V070 10SM CLR 17/01 A3017 RMK AO2 T01700013
KAFK 231515Z AUTO 04004KT 10SM CLR 16/01 A3017 RMK AO2 T01590014
KAFK 231455Z AUTO 06006KT 10SM CLR 15/01 A3018 RMK AO2 T01470012
KAFK 231435Z AUTO 04006KT 10SM CLR 14/01 A3018 RMK AO2 T01400006
KAFK 231415Z AUTO 04005KT 10SM CLR 13/00 A3018 RMK AO2 T01310001
KAFK 231355Z AUTO 03004KT 10SM CLR 12/00 A3018 RMK AO2 T01200004
KAFK 231335Z AUTO 02004KT 10SM SCT070 11/00 A3019 RMK AO2 T01120002
KAFK 231315Z AUTO 02004KT 10SM SCT070 11/00 A3019 RMK AO2 T01050000
KAFK 231255Z AUTO 02003KT 10SM CLR 09/00 A3019 RMK AO2 T00940004
KAFK 231235Z AUTO 02003KT 10SM CLR 08/00 A3018 RMK AO2 T00790000
KAFK 231215Z AUTO 01004KT 10SM CLR 07/M01 A3018 RMK AO2 T00701010
KAFK 231155Z AUTO 02004KT 10SM CLR 07/M01 A3017 RMK AO2 T00671013 10098 20065
KAFK 231135Z AUTO 36005KT 10SM SCT080 07/M01 A3017 RMK AO2 T00661012
KAFK 231115Z AUTO 36005KT 10SM BKN080 07/M01 A3016 RMK AO2 T00661010
KAFK 231055Z AUTO 36005KT 10SM SCT080 07/M01 A3016 RMK AO2 T00741010
KAFK 231035Z AUTO 01005KT 10SM SCT080 07/M01 A3016 RMK AO2 T00741009
KAFK 231015Z AUTO 03004KT 10SM OVC080 09/M01 A3016 RMK AO2 T00851008
KAFK 230955Z AUTO 02003KT 10SM OVC080 09/M01 A3016 RMK AO2 T00851006
KAFK 230935Z AUTO 00000KT 10SM OVC080 10/M01 A3016 RMK AO2 T00961010
KAFK 230915Z AUTO 36003KT 10SM OVC080 09/00 A3016 RMK AO2 T00871004
KAFK 230855Z AUTO 36004KT 10SM BKN080 08/00 A3016 RMK AO2 T00801005
KAFK 230835Z AUTO 00000KT 10SM BKN080 09/M01 A3016 RMK AO2 T00891007
KAFK 230815Z AUTO 08004KT 10SM SCT080 09/M01 A3016 RMK AO2 T00851006
KAFK 230755Z AUTO 00000KT 10SM CLR 09/M01 A3016 RMK AO2 T00901007
KAFK 230735Z AUTO 00000KT 10SM CLR 09/00 A3016 RMK AO2 T00931005
KAFK 230715Z AUTO 00000KT 10SM CLR 10/00 A3016 RMK AO2 T00961003
KAFK 230655Z AUTO 07004KT 10SM CLR 09/00 A3016 RMK AO2 T00860000
KAFK 230635Z AUTO 06004KT 10SM CLR 10/00 A3016 RMK AO2 T00970000
KAFK 230615Z AUTO 03004KT 10SM CLR 09/00 A3016 RMK AO2 T00910000
KAFK 230555Z AUTO 01004KT 10SM CLR 10/00 A3016 RMK AO2 T00960000 10205 20095 402110059
KAFK 230535Z AUTO 02005KT 10SM CLR 10/00 A3016 RMK AO2 T01020001
KAFK 230515Z AUTO 02003KT 10SM CLR 12/00 A3015 RMK AO2 T01170003
KAFK 230455Z AUTO 00000KT 10SM CLR 12/01 A3015 RMK AO2 T01150005
KAFK 230435Z AUTO 05003KT 10SM CLR 12/01 A3015 RMK AO2 T01180006
KAFK 230415Z AUTO 04003KT 10SM CLR 11/01 A3015 RMK AO2 T01140006
KAFK 230355Z AUTO 06004KT 10SM CLR 12/01 A3016 RMK AO2 T01170007
KAFK 230335Z AUTO 04005KT 10SM CLR 14/01 A3015 RMK AO2 T01350005
KAFK 230315Z AUTO 06004KT 10SM CLR 13/01 A3015 RMK AO2 T01330006
KAFK 230255Z AUTO 04004KT 10SM CLR 14/01 A3015 RMK AO2 T01380006
KAFK 230235Z AUTO 05004KT 10SM CLR 15/01 A3014 RMK AO2 T01460009
KAFK 230215Z AUTO 07006KT 10SM CLR 15/01 A3014 RMK AO2 T01540012
KAFK 230155Z AUTO 08008KT 10SM CLR 16/01 A3014 RMK AO2 T01600013
KAFK 230135Z AUTO 09008KT 10SM CLR 17/02 A3013 RMK AO2 T01670016
KAFK 230115Z AUTO 09008KT 10SM CLR 17/02 A3013 RMK AO2 T01720019
KAFK 230055Z AUTO 08006KT 10SM CLR 18/02 A3012 RMK AO2 T01800020
KAFK 230035Z AUTO 08009KT 10SM SCT095 19/02 A3011 RMK AO2 T01920020
KAFK 230015Z AUTO 09008G14KT 10SM BKN095 20/02 A3011 RMK AO2 T02000021
KAFK 222355Z AUTO 06011KT 10SM OVC095 21/02 A3011 RMK AO2 T02050024 10211 20171
KAFK 222335Z AUTO 08011KT 10SM OVC095 21/02 A3011 RMK AO2 T02090024
KAFK 222315Z AUTO 07009KT 10SM OVC095 20/02 A3011 RMK AO2 T02040024
KAFK 222255Z AUTO 06009KT 10SM OVC085 20/02 A3011 RMK AO2 T02020023
KAFK 222235Z AUTO 08012KT 10SM OVC085 21/03 A3011 RMK AO2 T02060027
KAFK 222215Z AUTO 06011KT 10SM OVC085 21/03 A3011 RMK AO2 T02080031
KAFK 222155Z AUTO 08007KT 10SM OVC085 20/03 A3011 RMK AO2 T02040025
KAFK 222135Z AUTO 07007G15KT 10SM OVC085 20/02 A3012 RMK AO2 T02030023
KAFK 222115Z AUTO 09009G18KT 10SM BKN085 21/03 A3012 RMK AO2 T02070026
KAFK 222055Z AUTO 02009G16KT 10SM BKN085 20/03 A3012 RMK AO2 T02040027
KAFK 222035Z AUTO 09008G16KT 10SM OVC085 21/03 A3013 RMK AO2 T02060026
KAFK 222015Z AUTO 05010G14KT 10SM OVC085 19/02 A3014 RMK AO2 T01940023
KAFK 221955Z AUTO 08009G14KT 10SM OVC085 19/02 A3015 RMK AO2 T01920023
KAFK 221935Z AUTO 06009G15KT 10SM BKN075 OVC085 19/02 A3016 RMK AO2 T01890023
KAFK 221915Z AUTO 04010KT 10SM OVC075 19/02 A3016 RMK AO2 T01850019
KAFK 221855Z AUTO 03007G10KT 10SM OVC085 18/02 A3016 RMK AO2 T01820019
KAFK 221835Z AUTO 04010KT 10SM OVC085 18/02 A3016 RMK AO2 T01780018
KAFK 221815Z AUTO 04010KT 10SM OVC085 18/02 A3017 RMK AO2 T01770019
KAFK 221755Z AUTO 04012KT 10SM OVC085 17/02 A3018 RMK AO2 T01710019 10175 20060
KAFK 221735Z AUTO 02010KT 10SM OVC085 16/01 A3019 RMK AO2 T01600013
KAFK 221715Z AUTO 07007KT 10SM OVC085 16/02 A3019 RMK AO2 T01590016
KAFK 221655Z AUTO 36003KT 10SM OVC085 15/01 A3020 RMK AO2 T01500014
KAFK 221635Z AUTO 07007KT 10SM OVC085 14/01 A3020 RMK AO2 T01370011
KAFK 221615Z AUTO 07008KT 10SM OVC085 14/01 A3020 RMK AO2 T01380013
KAFK 221555Z AUTO 06008KT 10SM SCT085 14/01 A3020 RMK AO2 T01360014
KAFK 221535Z AUTO 07008KT 10SM CLR 13/01 A3020 RMK AO2 T01270012
KAFK 221515Z AUTO 06010KT 10SM CLR 12/01 A3020 RMK AO2 T01190012
KAFK 221455Z AUTO 06008KT 10SM CLR 11/02 A3020 RMK AO2 T01130016
KAFK 221435Z AUTO 06010KT 10SM CLR 11/01 A3020 RMK AO2 T01120014
KAFK 221415Z AUTO 04009KT 10SM CLR 10/01 A3020 RMK AO2 T00970013
KAFK 221355Z AUTO 03010KT 10SM CLR 09/01 A3020 RMK AO2 T00930012
KAFK 221335Z AUTO 02009KT 10SM CLR 09/01 A3020 RMK AO2 T00890010
KAFK 221315Z AUTO 03008KT 10SM CLR 08/01 A3020 RMK AO2 T00830009
KAFK 221255Z AUTO 01006KT 10SM CLR 07/01 A3020 RMK AO2 T00730005
KAFK 221235Z AUTO 02006KT 10SM CLR 07/00 A3020 RMK AO2 T00700002
KAFK 221215Z AUTO 03007KT 10SM CLR 07/00 A3020 RMK AO2 T00700001
KAFK 221155Z AUTO 04007KT 10SM CLR 06/00 A3019 RMK AO2 T00590000 10105 20059
KAFK 221135Z AUTO 36008KT 10SM CLR 06/00 A3018 RMK AO2 T00630000
KAFK 221115Z AUTO 05005KT 10SM CLR 07/00 A3018 RMK AO2 T00670000
KAFK 221055Z AUTO 05007KT 10SM CLR 07/00 A3018 RMK AO2 T00720000
KAFK 221035Z AUTO 05009KT 10SM CLR 07/00 A3017 RMK AO2 T00740000
KAFK 221015Z AUTO 05009KT 10SM CLR 08/00 A3017 RMK AO2 T00770000
KAFK 220955Z AUTO 04008KT 10SM CLR 08/00 A3017 RMK AO2 T00781001
KAFK 220935Z AUTO 03005KT 10SM SCT090 SCT120 08/00 A3018 RMK AO2 T00761003
KAFK 220915Z AUTO 02004KT 10SM BKN090 08/00 A3018 RMK AO2 T00791004
KAFK 220855Z AUTO 04007KT 10SM SCT080 BKN100 08/00 A3018 RMK AO2 T00841003
KAFK 220835Z AUTO 04005KT 10SM SCT070 SCT080 SCT110 09/00 A3018 RMK AO2 T00891005
KAFK 220815Z AUTO 05004KT 10SM BKN070 OVC110 09/00 A3019 RMK AO2 T00901005
KAFK 220755Z AUTO 04005KT 10SM BKN070 OVC110 09/M01 A3019 RMK AO2 T00911007
KAFK 220735Z AUTO 05006KT 10SM OVC080 10/M01 A3019 RMK AO2 T00961010
KAFK 220715Z AUTO 06007KT 10SM BKN080 OVC100 10/M01 A3019 RMK AO2 T01001012